createdAt,value
2019-03-31T00:01:08.300Z,2.10
2019-03-31T00:03:36.711Z,2.00
2019-03-31T00:06:08.618Z,2.00
2019-03-31T00:08:40.518Z,2.00
2019-03-31T00:11:12.766Z,1.90
2019-03-31T00:13:44.766Z,1.90
2019-03-31T00:16:16.903Z,1.90
2019-03-31T00:18:49.192Z,1.90
2019-03-31T00:21:21.152Z,1.90
2019-03-31T00:23:53.108Z,1.90
2019-03-31T00:26:24.898Z,1.80
2019-03-31T00:28:56.792Z,1.80
2019-03-31T00:31:28.778Z,1.70
2019-03-31T00:34:00.606Z,1.70
2019-03-31T00:36:32.411Z,1.60
2019-03-31T00:39:05.834Z,1.60
2019-03-31T00:41:37.777Z,1.70
2019-03-31T00:44:09.796Z,1.60
2019-03-31T00:46:41.512Z,1.60
2019-03-31T00:49:13.269Z,1.60
2019-03-31T00:51:45.197Z,1.50
2019-03-31T00:54:17.079Z,1.50
2019-03-31T00:56:49.899Z,1.40
2019-03-31T00:59:21.769Z,1.40
2019-03-31T01:02:02.660Z,1.40
2019-03-31T01:04:34.797Z,1.40
2019-03-31T01:07:08.276Z,1.30
2019-03-31T01:09:40.075Z,1.30
2019-03-31T01:12:12.559Z,1.30
2019-03-31T01:14:45.313Z,1.30
2019-03-31T01:17:18.992Z,1.30
2019-03-31T01:19:52.082Z,1.30
2019-03-31T01:22:23.901Z,1.30
2019-03-31T01:24:55.679Z,1.30
2019-03-31T01:27:27.696Z,1.30
2019-03-31T01:29:59.516Z,1.30
2019-03-31T01:32:31.711Z,1.20
2019-03-31T01:35:03.690Z,1.20
2019-03-31T01:37:35.697Z,1.20
2019-03-31T01:40:07.528Z,1.10
2019-03-31T01:42:39.310Z,1.10
2019-03-31T01:45:11.429Z,1.10
2019-03-31T01:47:43.388Z,1.00
2019-03-31T01:50:15.888Z,1.00
2019-03-31T01:52:47.682Z,1.00
2019-03-31T01:55:19.602Z,1.00
2019-03-31T01:57:51.382Z,1.10
2019-03-31T02:00:38.823Z,1.10
2019-03-31T02:03:10.760Z,1.10
2019-03-31T02:05:42.489Z,1.00
2019-03-31T02:08:14.373Z,1.00
2019-03-31T02:10:46.073Z,1.00
2019-03-31T02:13:17.779Z,0.90
2019-03-31T02:15:49.509Z,0.90
2019-03-31T02:18:21.270Z,0.90
2019-03-31T02:20:52.938Z,0.90
2019-03-31T02:23:24.596Z,0.80
2019-03-31T02:25:56.288Z,0.80
2019-03-31T02:28:27.945Z,0.80
2019-03-31T02:30:59.724Z,0.70
2019-03-31T02:33:31.594Z,0.70
2019-03-31T02:36:03.412Z,0.70
2019-03-31T02:38:35.097Z,0.70
2019-03-31T02:41:06.726Z,0.70
2019-03-31T02:43:38.333Z,0.70
2019-03-31T02:46:10.064Z,0.70
2019-03-31T02:48:41.728Z,0.70
2019-03-31T02:51:13.884Z,0.80
2019-03-31T02:53:45.611Z,0.80
2019-03-31T02:56:18.315Z,0.90
2019-03-31T02:58:50.915Z,0.80
2019-03-31T03:01:24.973Z,0.80
2019-03-31T03:03:58.541Z,0.80
2019-03-31T03:06:32.042Z,0.70
2019-03-31T03:09:06.405Z,0.70
2019-03-31T03:11:38.873Z,0.60
2019-03-31T03:14:11.324Z,0.60
2019-03-31T03:16:42.889Z,0.60
2019-03-31T03:19:14.576Z,0.60
2019-03-31T03:21:46.318Z,0.60
2019-03-31T03:24:17.939Z,0.60
2019-03-31T03:26:49.634Z,0.60
2019-03-31T03:29:21.335Z,0.50
2019-03-31T03:31:52.990Z,0.50
2019-03-31T03:34:24.596Z,0.50
2019-03-31T03:36:56.331Z,0.50
2019-03-31T03:39:28.011Z,0.40
2019-03-31T03:41:59.638Z,0.40
2019-03-31T03:44:31.328Z,0.40
2019-03-31T03:47:02.999Z,0.40
2019-03-31T03:49:34.711Z,0.40
2019-03-31T03:52:06.554Z,0.40
2019-03-31T03:54:38.307Z,0.40
2019-03-31T03:57:09.938Z,0.30
2019-03-31T03:59:41.655Z,0.30
2019-03-31T04:02:13.385Z,0.30
2019-03-31T04:04:45.105Z,0.20
2019-03-31T04:07:16.720Z,0.20
2019-03-31T04:09:48.355Z,0.20
2019-03-31T04:12:20.058Z,0.20
2019-03-31T04:14:51.701Z,0.20
2019-03-31T04:17:23.354Z,0.20
2019-03-31T04:19:56.047Z,0.20
2019-03-31T04:22:27.705Z,0.20
2019-03-31T04:24:59.428Z,0.20
2019-03-31T04:27:30.961Z,0.20
2019-03-31T04:30:02.668Z,0.20
2019-03-31T04:32:38.541Z,0.30
2019-03-31T04:35:07.920Z,0.30
2019-03-31T04:37:39.550Z,0.20
2019-03-31T04:40:11.197Z,0.20
2019-03-31T04:42:43.933Z,0.20
2019-03-31T04:45:15.562Z,0.20
2019-03-31T04:47:47.189Z,0.30
2019-03-31T04:50:18.888Z,0.40
2019-03-31T04:52:50.610Z,0.50
2019-03-31T04:55:23.196Z,0.50
2019-03-31T04:57:55.947Z,0.60
2019-03-31T05:00:27.551Z,0.70
2019-03-31T05:02:59.162Z,0.80
2019-03-31T05:05:30.886Z,0.80
2019-03-31T05:08:02.555Z,1.00
2019-03-31T05:10:34.178Z,1.10
2019-03-31T05:13:05.755Z,1.20
2019-03-31T05:15:38.481Z,1.30
2019-03-31T05:18:10.188Z,1.40
2019-03-31T05:20:41.843Z,1.40
2019-03-31T05:23:13.472Z,1.50
2019-03-31T05:25:45.166Z,1.60
2019-03-31T05:28:16.902Z,1.70
2019-03-31T05:30:48.501Z,1.90
2019-03-31T05:33:20.158Z,2.00
2019-03-31T05:35:51.891Z,2.20
2019-03-31T05:38:23.599Z,2.40
2019-03-31T05:40:55.402Z,2.50
2019-03-31T05:43:27.062Z,2.70
2019-03-31T05:45:58.767Z,2.80
2019-03-31T05:48:30.510Z,2.90
2019-03-31T05:51:02.287Z,3.10
2019-03-31T05:53:34.032Z,3.30
2019-03-31T05:56:05.753Z,3.50
2019-03-31T05:58:37.473Z,3.80
2019-03-31T06:01:09.105Z,4.00
2019-03-31T06:03:40.778Z,4.40
2019-03-31T06:06:12.537Z,4.70
2019-03-31T06:08:44.221Z,4.90
2019-03-31T06:11:17.055Z,5.10
2019-03-31T06:13:50.562Z,5.50
2019-03-31T06:16:22.325Z,5.80
2019-03-31T06:18:54.040Z,6.10
2019-03-31T06:21:29.000Z,6.30
2019-03-31T06:23:59.088Z,6.50
2019-03-31T06:26:30.782Z,6.70
2019-03-31T06:29:02.539Z,6.90
2019-03-31T06:31:35.717Z,7.10
2019-03-31T06:34:07.371Z,7.30
2019-03-31T06:36:39.137Z,7.60
2019-03-31T06:39:10.797Z,7.90
2019-03-31T06:41:43.675Z,8.20
2019-03-31T06:44:15.503Z,8.40
2019-03-31T06:46:47.206Z,8.60
2019-03-31T06:49:18.976Z,8.80
2019-03-31T06:51:50.815Z,8.90
2019-03-31T06:54:22.640Z,9.00
2019-03-31T06:56:54.440Z,9.10
2019-03-31T06:59:26.350Z,9.20
2019-03-31T07:01:58.155Z,9.20
2019-03-31T07:04:31.100Z,9.30
2019-03-31T07:07:03.183Z,9.30
2019-03-31T07:09:35.010Z,9.40
2019-03-31T07:12:06.788Z,9.50
2019-03-31T07:14:38.577Z,9.60
2019-03-31T07:17:10.365Z,9.80
2019-03-31T07:19:42.142Z,10.00
2019-03-31T07:22:13.921Z,10.20
2019-03-31T07:24:45.724Z,10.50
2019-03-31T07:27:17.643Z,10.70
2019-03-31T07:29:49.451Z,10.90
2019-03-31T07:32:21.240Z,11.10
2019-03-31T07:34:52.972Z,11.20
2019-03-31T07:37:24.737Z,11.40
2019-03-31T07:39:56.633Z,11.60
2019-03-31T07:42:28.508Z,11.80
2019-03-31T07:45:00.389Z,12.00
2019-03-31T07:47:32.292Z,12.10
2019-03-31T07:50:04.229Z,12.30
2019-03-31T07:52:36.111Z,12.40
2019-03-31T07:55:09.784Z,12.50
2019-03-31T07:57:41.908Z,12.60
2019-03-31T08:00:17.419Z,12.70
2019-03-31T08:02:49.340Z,12.70
2019-03-31T08:05:32.843Z,12.60
2019-03-31T08:07:56.279Z,12.40
2019-03-31T08:10:28.016Z,12.40
2019-03-31T08:13:00.175Z,12.40
2019-03-31T08:15:31.859Z,12.50
2019-03-31T08:18:03.817Z,12.70
2019-03-31T08:20:35.537Z,12.60
2019-03-31T08:23:07.512Z,12.60
2019-03-31T08:25:39.264Z,12.40
2019-03-31T08:28:12.223Z,12.30
2019-03-31T08:30:44.017Z,12.30
2019-03-31T08:33:15.785Z,12.50
2019-03-31T08:35:48.004Z,12.70
2019-03-31T08:38:20.232Z,12.90
2019-03-31T08:40:52.004Z,13.00
2019-03-31T08:43:23.903Z,13.10
2019-03-31T08:45:56.068Z,13.30
2019-03-31T08:48:28.284Z,13.50
2019-03-31T08:51:01.451Z,13.70
2019-03-31T08:53:33.833Z,13.80
2019-03-31T08:56:08.588Z,14.00
2019-03-31T08:58:39.121Z,14.30
2019-03-31T09:01:16.119Z,14.60
2019-03-31T09:03:47.925Z,14.90
2019-03-31T09:06:19.620Z,15.20
2019-03-31T09:08:51.449Z,15.60
2019-03-31T09:11:23.318Z,15.70
2019-03-31T09:13:55.196Z,15.70
2019-03-31T09:16:29.418Z,15.80
2019-03-31T09:19:01.247Z,15.80
2019-03-31T09:21:33.097Z,15.80
2019-03-31T09:24:05.078Z,15.80
2019-03-31T09:26:37.028Z,15.90
2019-03-31T09:29:08.866Z,16.10
2019-03-31T09:31:40.673Z,16.00
2019-03-31T09:34:12.552Z,16.00
2019-03-31T09:36:44.340Z,16.20
2019-03-31T09:39:16.624Z,16.30
2019-03-31T09:41:48.321Z,16.50
2019-03-31T09:44:21.342Z,16.70
2019-03-31T09:46:54.896Z,16.80
2019-03-31T09:49:39.319Z,17.10
2019-03-31T09:52:10.989Z,17.20
2019-03-31T09:54:47.031Z,17.30
2019-03-31T09:57:34.335Z,17.40
2019-03-31T10:00:07.239Z,17.40
2019-03-31T10:02:40.272Z,17.40
2019-03-31T10:05:12.667Z,17.60
2019-03-31T10:07:46.013Z,17.60
2019-03-31T10:10:31.132Z,17.70
2019-03-31T10:13:03.307Z,17.60
2019-03-31T10:15:35.078Z,17.60
2019-03-31T10:18:07.021Z,17.70
2019-03-31T10:20:38.706Z,17.80
2019-03-31T10:23:10.679Z,17.40
2019-03-31T10:25:42.327Z,17.00
2019-03-31T10:28:14.189Z,17.00
2019-03-31T10:30:45.940Z,17.00
2019-03-31T10:33:17.793Z,17.10
2019-03-31T10:35:49.479Z,17.70
2019-03-31T10:38:21.311Z,18.00
2019-03-31T10:40:53.138Z,18.40
2019-03-31T10:43:25.896Z,18.40
2019-03-31T10:45:57.643Z,18.50
2019-03-31T10:48:29.558Z,18.10
2019-03-31T10:51:01.339Z,17.90
2019-03-31T10:53:33.032Z,18.20
2019-03-31T10:56:04.822Z,18.30
2019-03-31T10:58:36.833Z,18.30
2019-03-31T11:01:08.678Z,18.50
2019-03-31T11:03:40.510Z,18.30
2019-03-31T11:06:12.296Z,18.30
2019-03-31T11:08:44.106Z,18.60
2019-03-31T11:11:15.903Z,18.70
2019-03-31T11:13:47.795Z,18.80
2019-03-31T11:16:22.129Z,19.10
2019-03-31T11:18:54.012Z,19.00
2019-03-31T11:21:47.734Z,19.30
2019-03-31T11:24:19.648Z,19.40
2019-03-31T11:26:51.455Z,19.10
2019-03-31T11:29:23.328Z,18.90
2019-03-31T11:31:55.013Z,18.40
2019-03-31T11:34:26.740Z,18.00
2019-03-31T11:37:12.463Z,18.00
2019-03-31T11:39:31.810Z,18.20
2019-03-31T11:42:03.515Z,18.00
2019-03-31T11:44:35.427Z,17.70
2019-03-31T11:47:07.313Z,17.90
2019-03-31T11:49:40.147Z,18.50
2019-03-31T11:52:12.174Z,18.60
2019-03-31T11:54:45.944Z,18.40
2019-03-31T11:57:17.821Z,18.10
2019-03-31T11:59:49.945Z,17.90
2019-03-31T12:02:27.505Z,17.70
2019-03-31T12:04:56.078Z,17.70
2019-03-31T12:07:28.708Z,18.00
2019-03-31T12:10:00.980Z,18.40
2019-03-31T12:12:32.951Z,18.40
2019-03-31T12:15:05.257Z,18.80
2019-03-31T12:17:37.137Z,19.30
2019-03-31T12:20:09.751Z,19.80
2019-03-31T12:22:42.201Z,20.10
2019-03-31T12:25:14.659Z,20.10
2019-03-31T12:27:46.695Z,20.00
2019-03-31T12:30:27.434Z,20.00
2019-03-31T12:32:59.837Z,20.30
2019-03-31T12:35:31.917Z,20.20
2019-03-31T12:38:03.888Z,19.70
2019-03-31T12:40:37.473Z,18.60
2019-03-31T12:43:09.420Z,17.90
2019-03-31T12:45:43.172Z,17.80
2019-03-31T12:48:14.876Z,17.60
2019-03-31T12:50:46.935Z,17.20
2019-03-31T12:53:18.844Z,16.80
2019-03-31T12:55:59.873Z,16.80
2019-03-31T12:58:24.182Z,16.80
2019-03-31T13:00:56.047Z,16.80
2019-03-31T13:03:30.126Z,16.90
2019-03-31T13:06:01.980Z,17.00
2019-03-31T13:08:33.784Z,17.00
2019-03-31T13:11:09.835Z,17.00
2019-03-31T13:13:42.149Z,17.00
2019-03-31T13:16:14.566Z,16.70
2019-03-31T13:18:46.679Z,16.60
2019-03-31T13:21:18.565Z,16.70
2019-03-31T13:23:50.359Z,17.00
2019-03-31T13:26:22.256Z,17.60
2019-03-31T13:28:54.518Z,17.90
2019-03-31T13:31:26.666Z,17.50
2019-03-31T13:33:58.502Z,17.00
2019-03-31T13:36:30.356Z,16.70
2019-03-31T13:39:02.337Z,16.40
2019-03-31T13:41:34.624Z,16.10
2019-03-31T13:44:06.562Z,15.70
2019-03-31T13:46:38.502Z,15.40
2019-03-31T13:49:10.227Z,15.20
2019-03-31T13:51:42.025Z,15.00
2019-03-31T13:54:13.963Z,14.90
2019-03-31T13:56:48.718Z,14.90
2019-03-31T13:59:19.134Z,15.00
2019-03-31T14:01:51.204Z,15.10
2019-03-31T14:04:23.037Z,15.00
2019-03-31T14:06:54.978Z,15.20
2019-03-31T14:09:26.820Z,15.50
2019-03-31T14:11:58.799Z,15.90
2019-03-31T14:14:30.674Z,16.30
2019-03-31T14:17:02.710Z,16.60
2019-03-31T14:19:34.814Z,16.60
2019-03-31T14:22:06.885Z,16.80
2019-03-31T14:24:38.608Z,16.70
2019-03-31T14:27:10.389Z,16.80
2019-03-31T14:29:42.573Z,16.70
2019-03-31T14:32:15.823Z,16.60
2019-03-31T14:34:47.858Z,16.40
2019-03-31T14:37:19.926Z,16.20
2019-03-31T14:39:51.737Z,16.30
2019-03-31T14:42:23.580Z,16.30
2019-03-31T14:44:55.415Z,16.20
2019-03-31T14:47:27.633Z,15.70
2019-03-31T14:49:59.513Z,15.10
2019-03-31T14:52:31.395Z,14.70
2019-03-31T14:55:03.386Z,14.40
2019-03-31T14:57:35.369Z,14.10
2019-03-31T15:00:14.771Z,14.30
2019-03-31T15:02:41.327Z,14.70
2019-03-31T15:05:13.200Z,15.00
2019-03-31T15:07:45.192Z,15.00
2019-03-31T15:10:17.204Z,14.80
2019-03-31T15:12:49.130Z,14.80
2019-03-31T15:15:29.760Z,15.00
2019-03-31T15:18:01.796Z,14.90
2019-03-31T15:20:35.590Z,14.80
2019-03-31T15:23:10.849Z,14.70
2019-03-31T15:25:43.331Z,14.70
2019-03-31T15:28:15.389Z,14.40
2019-03-31T15:30:48.887Z,13.90
2019-03-31T15:33:21.073Z,13.30
2019-03-31T15:35:53.058Z,13.20
2019-03-31T15:38:25.105Z,13.20
2019-03-31T15:40:57.249Z,13.20
2019-03-31T15:43:30.626Z,13.00
2019-03-31T15:46:03.426Z,13.00
2019-03-31T15:48:35.347Z,13.10
2019-03-31T15:51:07.241Z,13.00
2019-03-31T15:53:39.288Z,12.80
2019-03-31T15:56:12.283Z,12.70
2019-03-31T15:58:44.233Z,12.60
2019-03-31T16:01:16.516Z,12.50
2019-03-31T16:03:48.479Z,12.60
2019-03-31T16:06:20.348Z,12.50
2019-03-31T16:08:51.768Z,12.20
2019-03-31T16:11:24.138Z,12.10
2019-03-31T16:13:56.567Z,12.00
2019-03-31T16:16:30.681Z,11.90
2019-03-31T16:19:01.441Z,11.80
2019-03-31T16:21:33.145Z,11.80
2019-03-31T16:24:04.756Z,11.70
2019-03-31T16:26:36.243Z,11.60
2019-03-31T16:29:08.599Z,11.50
2019-03-31T16:31:41.951Z,11.40
2019-03-31T16:34:15.085Z,11.40
2019-03-31T16:36:47.660Z,11.30
2019-03-31T16:39:19.543Z,11.20
2019-03-31T16:41:51.249Z,11.00
2019-03-31T16:44:22.712Z,10.80
2019-03-31T16:46:54.268Z,10.70
2019-03-31T16:49:25.862Z,10.60
2019-03-31T16:51:57.336Z,10.50
2019-03-31T16:54:28.704Z,10.40
2019-03-31T16:57:00.186Z,10.30
2019-03-31T16:59:31.919Z,10.10
2019-03-31T17:02:03.498Z,10.10
2019-03-31T17:04:34.866Z,10.00
2019-03-31T17:07:07.075Z,9.90
2019-03-31T17:09:50.971Z,9.90
2019-03-31T17:12:11.547Z,9.70
2019-03-31T17:14:42.782Z,9.70
2019-03-31T17:17:14.562Z,9.60
2019-03-31T17:19:46.297Z,9.60
2019-03-31T17:22:19.049Z,9.50
2019-03-31T17:24:50.763Z,9.40
2019-03-31T17:27:22.281Z,9.40
2019-03-31T17:29:53.515Z,9.40
2019-03-31T17:32:24.854Z,9.30
2019-03-31T17:34:56.366Z,9.30
2019-03-31T17:37:27.618Z,9.20
2019-03-31T17:40:05.979Z,9.20
2019-03-31T17:42:31.782Z,9.10
2019-03-31T17:45:03.285Z,9.00
2019-03-31T17:47:34.997Z,8.90
2019-03-31T17:50:07.139Z,8.90
2019-03-31T17:52:38.581Z,8.80
2019-03-31T17:55:10.426Z,8.70
2019-03-31T17:57:42.516Z,8.60
2019-03-31T18:00:14.704Z,8.50
2019-03-31T18:02:46.308Z,8.50
2019-03-31T18:05:17.557Z,8.50
2019-03-31T18:07:48.900Z,8.40
2019-03-31T18:10:21.546Z,8.30
2019-03-31T18:12:53.047Z,8.30
2019-03-31T18:15:24.553Z,8.20
2019-03-31T18:17:56.197Z,8.10
2019-03-31T18:20:27.562Z,8.00
2019-03-31T18:22:59.295Z,8.00
2019-03-31T18:25:30.676Z,7.90
2019-03-31T18:28:02.129Z,7.90
2019-03-31T18:30:34.437Z,7.90
2019-03-31T18:33:05.868Z,7.90
2019-03-31T18:35:37.521Z,7.80
2019-03-31T18:38:08.916Z,7.70
2019-03-31T18:40:40.336Z,7.70
2019-03-31T18:43:11.969Z,7.60
2019-03-31T18:45:43.571Z,7.40
2019-03-31T18:48:15.111Z,7.30
2019-03-31T18:50:46.761Z,7.10
2019-03-31T18:53:31.173Z,6.90
2019-03-31T18:56:24.186Z,6.70
2019-03-31T18:59:23.756Z,6.50
2019-03-31T19:02:14.470Z,6.20
2019-03-31T19:05:14.091Z,6.00
2019-03-31T19:08:03.298Z,5.90
2019-03-31T19:10:49.667Z,5.80
2019-03-31T19:13:54.848Z,5.60
2019-03-31T19:16:34.186Z,5.50
2019-03-31T19:19:19.379Z,5.40
2019-03-31T19:22:10.178Z,5.30
2019-03-31T19:25:03.821Z,5.20
2019-03-31T19:27:43.209Z,5.00
2019-03-31T19:30:27.967Z,4.80
2019-03-31T19:33:18.623Z,4.70
2019-03-31T19:36:11.911Z,4.60
2019-03-31T19:39:08.524Z,4.50
2019-03-31T19:42:17.929Z,4.40
2019-03-31T19:44:56.866Z,4.40
2019-03-31T19:48:10.968Z,4.30
2019-03-31T19:51:15.550Z,4.30
2019-03-31T19:54:31.627Z,4.40
2019-03-31T19:57:35.800Z,4.40
2019-03-31T20:00:30.996Z,4.20
2019-03-31T20:03:37.676Z,4.10
2019-03-31T20:06:27.893Z,4.00
2019-03-31T20:09:21.867Z,4.20
2019-03-31T20:12:19.029Z,4.50
2019-03-31T20:15:15.160Z,4.60
2019-03-31T20:18:25.784Z,4.70
2019-03-31T20:21:30.978Z,4.80
2019-03-31T20:24:06.982Z,4.80
2019-03-31T20:26:59.956Z,4.80
2019-03-31T20:29:46.798Z,5.00
2019-03-31T20:32:34.827Z,5.10
2019-03-31T20:35:30.037Z,5.20
2019-03-31T20:38:13.306Z,5.40
2019-03-31T20:40:55.386Z,5.50
2019-03-31T20:43:39.244Z,5.50
2019-03-31T20:46:10.977Z,5.50
2019-03-31T20:48:42.368Z,5.50
2019-03-31T20:51:13.723Z,5.50
2019-03-31T20:53:45.067Z,5.50
2019-03-31T20:56:16.634Z,5.40
2019-03-31T20:58:47.885Z,5.30
2019-03-31T21:01:19.235Z,5.30
2019-03-31T21:03:50.468Z,5.20
2019-03-31T21:06:21.735Z,5.10
2019-03-31T21:08:53.114Z,5.00
2019-03-31T21:11:24.395Z,5.00
2019-03-31T21:13:57.253Z,5.00
2019-03-31T21:16:28.708Z,5.10
2019-03-31T21:19:00.141Z,5.10
2019-03-31T21:21:31.441Z,5.00
2019-03-31T21:24:02.781Z,5.00
2019-03-31T21:26:34.097Z,5.10
2019-03-31T21:29:05.484Z,5.00
2019-03-31T21:31:36.741Z,5.00
2019-03-31T21:34:07.996Z,5.00
2019-03-31T21:36:39.284Z,4.90
2019-03-31T21:39:10.506Z,5.00
2019-03-31T21:41:41.666Z,5.00
2019-03-31T21:44:13.115Z,4.90
2019-03-31T21:46:44.587Z,4.80
2019-03-31T21:49:15.837Z,4.80
2019-03-31T21:51:47.148Z,4.70
2019-03-31T21:54:18.504Z,4.60
2019-03-31T21:56:49.712Z,4.50
2019-03-31T21:59:20.921Z,4.40
2019-03-31T22:01:52.247Z,4.30
2019-03-31T22:04:23.591Z,4.20
2019-03-31T22:06:54.875Z,4.10
2019-03-31T22:09:28.801Z,4.00
2019-03-31T22:12:08.510Z,3.90
2019-03-31T22:14:49.992Z,3.90
2019-03-31T22:17:21.342Z,3.90
2019-03-31T22:19:52.672Z,3.80
2019-03-31T22:22:23.999Z,3.70
2019-03-31T22:24:55.269Z,3.80
2019-03-31T22:27:26.703Z,3.90
2019-03-31T22:29:58.067Z,3.90
2019-03-31T22:32:29.291Z,3.90
2019-03-31T22:35:00.620Z,4.00
2019-03-31T22:37:31.978Z,4.00
2019-03-31T22:40:03.365Z,4.00
2019-03-31T22:42:34.584Z,4.00
2019-03-31T22:45:06.238Z,3.90
2019-03-31T22:47:37.809Z,3.80
2019-03-31T22:50:09.021Z,3.70
2019-03-31T22:52:40.269Z,3.70
2019-03-31T22:55:11.576Z,3.60
2019-03-31T22:57:42.856Z,3.50
2019-03-31T23:00:20.272Z,3.40
2019-03-31T23:02:53.194Z,3.30
2019-03-31T23:05:24.464Z,3.20
2019-03-31T23:07:55.775Z,3.10
2019-03-31T23:10:27.097Z,3.00
2019-03-31T23:12:58.317Z,2.90
2019-03-31T23:15:29.618Z,2.90
2019-03-31T23:18:00.718Z,2.90
2019-03-31T23:20:31.903Z,2.80
2019-03-31T23:23:03.127Z,2.80
2019-03-31T23:25:34.574Z,2.80
2019-03-31T23:28:05.809Z,2.80
2019-03-31T23:30:37.106Z,2.70
2019-03-31T23:33:08.333Z,2.80
2019-03-31T23:35:39.605Z,2.80
2019-03-31T23:38:10.939Z,2.70
2019-03-31T23:40:42.102Z,2.80
2019-03-31T23:43:13.272Z,2.70
2019-03-31T23:45:44.437Z,2.70
2019-03-31T23:48:15.711Z,2.60
2019-03-31T23:50:46.878Z,2.60
2019-03-31T23:53:18.096Z,2.60
2019-03-31T23:55:49.334Z,2.60
2019-03-31T23:58:20.606Z,2.70
